createdAt,value
2023-04-16T00:00:54.487Z,100483.25
2023-04-16T00:01:57.298Z,100483.88
2023-04-16T00:03:01.171Z,100479.56
2023-04-16T00:04:04.472Z,100481.88
2023-04-16T00:05:08.927Z,100490.16
2023-04-16T00:06:12.136Z,100487.97
2023-04-16T00:07:15.800Z,100480.34
2023-04-16T00:08:18.085Z,100480.06
2023-04-16T00:09:21.740Z,100449.72
2023-04-16T00:10:24.143Z,100477.91
2023-04-16T00:11:29.300Z,100487.84
2023-04-16T00:12:31.980Z,100491.03
2023-04-16T00:13:35.922Z,100485.66
2023-04-16T00:14:38.783Z,100491.13
2023-04-16T00:15:42.642Z,100492.78
2023-04-16T00:16:45.459Z,100483.13
2023-04-16T00:17:49.063Z,100486.41
2023-04-16T00:18:51.802Z,100483.75
2023-04-16T00:19:55.515Z,100482.69
2023-04-16T00:20:58.373Z,100481.47
2023-04-16T00:22:02.021Z,100486.03
2023-04-16T00:23:04.750Z,100482.47
2023-04-16T00:24:08.395Z,100484.25
2023-04-16T00:25:11.087Z,100488.72
2023-04-16T00:26:14.779Z,100485.13
2023-04-16T00:27:19.742Z,100486.19
2023-04-16T00:28:23.494Z,100481.84
2023-04-16T00:29:27.718Z,100482.84
2023-04-16T00:30:31.340Z,100484.75
2023-04-16T00:31:35.810Z,100480.56
2023-04-16T00:32:38.421Z,100478.78
2023-04-16T00:33:42.330Z,100474.84
2023-04-16T00:34:44.497Z,100478.28
2023-04-16T00:35:48.729Z,100485.19
2023-04-16T00:36:51.719Z,100476.63
2023-04-16T00:37:55.413Z,100484.66
2023-04-16T00:38:57.848Z,100483.91
2023-04-16T00:40:01.598Z,100484.16
2023-04-16T00:41:05.997Z,100494.63
2023-04-16T00:42:10.065Z,100490.63
2023-04-16T00:43:22.224Z,100480.59
2023-04-16T00:44:25.943Z,100481.59
2023-04-16T00:45:28.225Z,100483.41
2023-04-16T00:46:32.522Z,100480.84
2023-04-16T00:47:35.780Z,100453.69
2023-04-16T00:48:42.199Z,100488.34
2023-04-16T00:49:45.127Z,100484.91
2023-04-16T00:50:49.101Z,100484.66
2023-04-16T00:51:51.900Z,100466.69
2023-04-16T00:52:55.782Z,100483.63
2023-04-16T00:53:58.540Z,100488.47
2023-04-16T00:55:03.233Z,100493.31
2023-04-16T00:56:07.713Z,100489.47
2023-04-16T00:57:11.999Z,100484.91
2023-04-16T00:58:16.680Z,100488.72
2023-04-16T00:59:20.856Z,100482.22
2023-04-16T01:00:23.660Z,100487.69
2023-04-16T01:01:27.376Z,100487.31
2023-04-16T01:02:29.899Z,100493.31
2023-04-16T01:03:40.427Z,100495.97
2023-04-16T01:04:43.502Z,100495.97
2023-04-16T01:05:49.484Z,100493.16
2023-04-16T01:06:52.141Z,100491.25
2023-04-16T01:07:59.902Z,100494.44
2023-04-16T01:09:02.625Z,100500.03
2023-04-16T01:10:06.720Z,100486.13
2023-04-16T01:11:10.128Z,100499.78
2023-04-16T01:12:13.805Z,100492.63
2023-04-16T01:13:18.019Z,100499.88
2023-04-16T01:14:21.629Z,100502.16
2023-04-16T01:15:24.413Z,100498.59
2023-04-16T01:16:28.158Z,100494.75
2023-04-16T01:17:30.892Z,100498.16
2023-04-16T01:18:34.448Z,100494.75
2023-04-16T01:19:37.415Z,100491.94
2023-04-16T01:20:42.537Z,100490.03
2023-04-16T01:21:45.202Z,100490.91
2023-04-16T01:22:48.760Z,100489.78
2023-04-16T01:23:51.509Z,100486.31
2023-04-16T01:24:55.223Z,100487.06
2023-04-16T01:25:58.033Z,100486.94
2023-04-16T01:27:01.844Z,100487.31
2023-04-16T01:28:04.881Z,100494.44
2023-04-16T01:29:08.757Z,100490.88
2023-04-16T01:30:30.709Z,100497.75
2023-04-16T01:31:34.475Z,100490.88
2023-04-16T01:32:36.791Z,100493.56
2023-04-16T01:33:40.548Z,100488.06
2023-04-16T01:34:42.865Z,100495.50
2023-04-16T01:35:48.320Z,100498.78
2023-04-16T01:36:51.413Z,100498.16
2023-04-16T01:37:55.251Z,100499.31
2023-04-16T01:38:58.014Z,100499.44
2023-04-16T01:40:01.622Z,100497.03
2023-04-16T01:41:06.822Z,100488.63
2023-04-16T01:42:10.512Z,100498.06
2023-04-16T01:43:12.895Z,100497.31
2023-04-16T01:44:16.551Z,100496.25
2023-04-16T01:45:19.285Z,100499.31
2023-04-16T01:46:28.802Z,100501.88
2023-04-16T01:47:31.573Z,100506.53
2023-04-16T01:48:35.334Z,100503.25
2023-04-16T01:49:37.563Z,100515.06
2023-04-16T01:50:41.319Z,100505.78
2023-04-16T01:51:45.774Z,100507.59
2023-04-16T01:52:49.438Z,100510.13
2023-04-16T01:53:52.260Z,100475.44
2023-04-16T01:54:56.105Z,100499.03
2023-04-16T01:55:58.835Z,100507.59
2023-04-16T01:57:03.420Z,100493.06
2023-04-16T01:58:08.088Z,100498.91
2023-04-16T01:59:12.511Z,100495.50
2023-04-16T02:00:15.477Z,100498.03
2023-04-16T02:01:19.375Z,100503.13
2023-04-16T02:02:28.441Z,100505.53
2023-04-16T02:03:32.941Z,100504.50
2023-04-16T02:04:35.723Z,100504.34
2023-04-16T02:05:39.355Z,100514.53
2023-04-16T02:06:42.004Z,100501.81
2023-04-16T02:07:47.272Z,100512.78
2023-04-16T02:08:49.835Z,100509.31
2023-04-16T02:09:53.839Z,100510.22
2023-04-16T02:10:57.193Z,100509.31
2023-04-16T02:12:02.944Z,100521.31
2023-04-16T02:13:06.040Z,100523.84
2023-04-16T02:14:10.094Z,100520.53
2023-04-16T02:15:13.123Z,100523.97
2023-04-16T02:16:16.823Z,100517.72
2023-04-16T02:17:40.438Z,100529.69
2023-04-16T02:18:44.920Z,100528.78
2023-04-16T02:19:48.564Z,100528.03
2023-04-16T02:20:51.244Z,100532.22
2023-04-16T02:21:55.164Z,100524.72
2023-04-16T02:22:59.190Z,100527.25
2023-04-16T02:24:02.833Z,100522.16
2023-04-16T02:25:05.788Z,100524.13
2023-04-16T02:26:09.669Z,100530.06
2023-04-16T02:27:12.459Z,100523.59
2023-04-16T02:28:17.928Z,100525.53
2023-04-16T02:29:20.909Z,100524.88
2023-04-16T02:30:24.602Z,100518.91
2023-04-16T02:31:28.769Z,100524.25
2023-04-16T02:32:32.681Z,100520.06
2023-04-16T02:33:36.212Z,100525.44
2023-04-16T02:34:40.460Z,100526.44
2023-04-16T02:35:43.173Z,100518.81
2023-04-16T02:36:47.656Z,100521.50
2023-04-16T02:37:50.227Z,100518.81
2023-04-16T02:38:55.320Z,100524.94
2023-04-16T02:39:58.265Z,100517.91
2023-04-16T02:41:01.915Z,100527.50
2023-04-16T02:42:04.617Z,100526.72
2023-04-16T02:43:08.273Z,100532.81
2023-04-16T02:44:10.631Z,100531.19
2023-04-16T02:45:14.804Z,100532.06
2023-04-16T02:46:17.548Z,100526.72
2023-04-16T02:47:21.207Z,100527.13
2023-04-16T02:48:23.959Z,100516.41
2023-04-16T02:49:27.564Z,100530.97
2023-04-16T02:50:31.387Z,100533.63
2023-04-16T02:51:33.885Z,100536.31
2023-04-16T02:52:37.700Z,100534.53
2023-04-16T02:53:40.401Z,100534.91
2023-04-16T02:54:45.683Z,100536.06
2023-04-16T02:55:52.985Z,100534.53
2023-04-16T02:56:57.140Z,100533.28
2023-04-16T02:57:59.639Z,100536.97
2023-04-16T02:59:03.466Z,100536.22
2023-04-16T03:00:07.193Z,100536.34
2023-04-16T03:01:11.433Z,100541.44
2023-04-16T03:02:14.346Z,100532.41
2023-04-16T03:03:18.053Z,100534.81
2023-04-16T03:04:20.789Z,100541.44
2023-04-16T03:05:24.597Z,100531.78
2023-04-16T03:06:27.353Z,100534.59
2023-04-16T03:07:31.122Z,100530.25
2023-04-16T03:08:33.821Z,100533.59
2023-04-16T03:09:37.714Z,100532.94
2023-04-16T03:10:41.917Z,100545.28
2023-04-16T03:11:45.592Z,100543.13
2023-04-16T03:12:47.954Z,100542.59
2023-04-16T03:13:51.662Z,100540.06
2023-04-16T03:14:53.942Z,100542.72
2023-04-16T03:15:57.709Z,100535.97
2023-04-16T03:17:01.720Z,100540.59
2023-04-16T03:18:05.336Z,100546.06
2023-04-16T03:19:08.236Z,100530.78
2023-04-16T03:20:12.610Z,100541.88
2023-04-16T03:21:15.180Z,100543.78
2023-04-16T03:22:18.926Z,100550.78
2023-04-16T03:23:21.361Z,100553.88
2023-04-16T03:24:25.104Z,100546.06
2023-04-16T03:25:27.565Z,100542.78
2023-04-16T03:26:32.739Z,100545.69
2023-04-16T03:27:35.762Z,100544.94
2023-04-16T03:28:39.355Z,100546.38
2023-04-16T03:29:41.967Z,100539.59
2023-04-16T03:30:51.530Z,100541.88
2023-04-16T03:31:54.309Z,100541.63
2023-04-16T03:32:58.047Z,100549.03
2023-04-16T03:34:00.377Z,100549.16
2023-04-16T03:35:04.946Z,100543.28
2023-04-16T03:36:08.335Z,100556.28
2023-04-16T03:37:12.620Z,100553.88
2023-04-16T03:38:15.416Z,100545.19
2023-04-16T03:39:19.102Z,100545.34
2023-04-16T03:40:21.940Z,100548.41
2023-04-16T03:41:25.615Z,100544.81
2023-04-16T03:42:29.734Z,100550.16
2023-04-16T03:43:33.435Z,100554.88
2023-04-16T03:44:37.476Z,100564.69
2023-04-16T03:45:45.151Z,100564.22
2023-04-16T03:46:49.024Z,100553.22
2023-04-16T03:47:53.111Z,100551.31
2023-04-16T03:48:57.128Z,100558.84
2023-04-16T03:49:59.778Z,100561.78
2023-04-16T03:51:03.541Z,100551.06
2023-04-16T03:52:06.280Z,100555.13
2023-04-16T03:53:09.975Z,100550.53
2023-04-16T03:54:12.701Z,100551.03
2023-04-16T03:55:16.657Z,100553.97
2023-04-16T03:56:19.455Z,100549.13
2023-04-16T03:57:23.232Z,100553.03
2023-04-16T03:58:27.274Z,100562.19
2023-04-16T03:59:31.300Z,100556.84
2023-04-16T04:00:33.816Z,100554.66
2023-04-16T04:01:37.887Z,100556.25
2023-04-16T04:02:40.665Z,100551.53
2023-04-16T04:03:44.747Z,100554.44
2023-04-16T04:04:47.761Z,100554.03
2023-04-16T04:05:51.640Z,100559.09
2023-04-16T04:06:54.180Z,100556.69
2023-04-16T04:07:58.032Z,100552.72
2023-04-16T04:09:00.229Z,100555.63
2023-04-16T04:10:04.161Z,100555.22
2023-04-16T04:11:06.868Z,100558.34
2023-04-16T04:12:11.288Z,100558.50
2023-04-16T04:13:13.959Z,100551.19
2023-04-16T04:14:19.105Z,100561.75
2023-04-16T04:15:21.849Z,100553.19
2023-04-16T04:16:25.806Z,100540.78
2023-04-16T04:17:28.489Z,100549.03
2023-04-16T04:18:32.303Z,100550.28
2023-04-16T04:19:35.134Z,100556.53
2023-04-16T04:20:41.222Z,100558.53
2023-04-16T04:21:43.904Z,100551.88
2023-04-16T04:22:47.629Z,100552.88
2023-04-16T04:23:50.381Z,100549.00
2023-04-16T04:24:54.027Z,100555.91
2023-04-16T04:25:56.821Z,100551.03
2023-04-16T04:27:00.510Z,100554.84
2023-04-16T04:28:02.767Z,100548.50
2023-04-16T04:29:06.416Z,100550.28
2023-04-16T04:30:11.130Z,100550.47
2023-04-16T04:31:15.085Z,100560.19
2023-04-16T04:32:17.777Z,100551.41
2023-04-16T04:33:21.541Z,100555.50
2023-04-16T04:34:24.313Z,100548.53
2023-04-16T04:35:27.890Z,100549.66
2023-04-16T04:36:31.300Z,100553.34
2023-04-16T04:37:35.097Z,100550.22
2023-04-16T04:38:37.804Z,100551.91
2023-04-16T04:39:41.446Z,100551.69
2023-04-16T04:40:43.722Z,100550.03
2023-04-16T04:41:47.445Z,100544.47
2023-04-16T04:42:50.775Z,100547.38
2023-04-16T04:43:54.683Z,100545.16
2023-04-16T04:44:57.173Z,100539.38
2023-04-16T04:46:02.443Z,100549.84
2023-04-16T04:47:05.155Z,100542.59
2023-04-16T04:48:08.976Z,100548.06
2023-04-16T04:49:11.785Z,100539.25
2023-04-16T04:50:15.557Z,100544.16
2023-04-16T04:51:17.919Z,100548.41
2023-04-16T04:52:22.040Z,100540.72
2023-04-16T04:53:24.691Z,100541.63
2023-04-16T04:54:28.397Z,100546.16
2023-04-16T04:55:30.691Z,100547.63
2023-04-16T04:56:34.571Z,100537.16
2023-04-16T04:57:37.296Z,100547.97
2023-04-16T04:58:41.698Z,100542.06
2023-04-16T04:59:44.376Z,100543.81
2023-04-16T05:00:48.347Z,100543.72
2023-04-16T05:01:52.662Z,100519.75
2023-04-16T05:02:56.514Z,100546.50
2023-04-16T05:03:59.334Z,100549.97
2023-04-16T05:05:03.039Z,100538.16
2023-04-16T05:06:07.720Z,100534.59
2023-04-16T05:07:11.398Z,100533.47
2023-04-16T05:08:13.846Z,100533.34
2023-04-16T05:09:17.613Z,100535.59
2023-04-16T05:10:20.456Z,100534.47
2023-04-16T05:11:24.203Z,100540.16
2023-04-16T05:12:26.976Z,100532.03
2023-04-16T05:13:30.805Z,100544.16
2023-04-16T05:14:33.637Z,100532.38
2023-04-16T05:15:39.484Z,100538.94
2023-04-16T05:16:42.178Z,100537.22
2023-04-16T05:17:47.482Z,100536.91
2023-04-16T05:18:50.728Z,100538.25
2023-04-16T05:19:54.394Z,100533.34
2023-04-16T05:20:56.684Z,100542.25
2023-04-16T05:22:00.402Z,100547.16
2023-04-16T05:23:02.654Z,100541.94
2023-04-16T05:24:06.685Z,100536.38
2023-04-16T05:25:10.047Z,100539.59
2023-04-16T05:26:13.575Z,100540.16
2023-04-16T05:27:17.377Z,100537.91
2023-04-16T05:28:19.931Z,100534.47
2023-04-16T05:29:23.845Z,100537.69
2023-04-16T05:30:26.076Z,100536.31
2023-04-16T05:31:29.876Z,100542.34
2023-04-16T05:32:32.564Z,100539.03
2023-04-16T05:33:37.753Z,100545.25
2023-04-16T05:34:40.793Z,100543.56
2023-04-16T05:35:44.386Z,100538.22
2023-04-16T05:36:47.257Z,100539.25
2023-04-16T05:37:50.921Z,100541.34
2023-04-16T05:38:53.227Z,100537.44
2023-04-16T05:39:56.968Z,100537.75
2023-04-16T05:40:59.940Z,100540.44
2023-04-16T05:42:03.494Z,100537.50
2023-04-16T05:43:06.390Z,100538.94
2023-04-16T05:44:10.025Z,100543.63
2023-04-16T05:45:12.683Z,100536.50
2023-04-16T05:46:16.330Z,100540.81
2023-04-16T05:47:19.302Z,100543.03
2023-04-16T05:48:22.916Z,100533.84
2023-04-16T05:49:26.960Z,100537.31
2023-04-16T05:50:30.751Z,100533.97
2023-04-16T05:51:33.454Z,100528.59
2023-04-16T05:52:37.281Z,100527.03
2023-04-16T05:53:39.902Z,100531.09
2023-04-16T05:54:43.513Z,100535.53
2023-04-16T05:55:47.195Z,100532.19
2023-04-16T05:56:50.827Z,100533.31
2023-04-16T05:57:53.164Z,100523.25
2023-04-16T05:58:56.798Z,100520.78
2023-04-16T05:59:59.410Z,100526.13
2023-04-16T06:01:03.867Z,100528.13
2023-04-16T06:02:09.060Z,100509.47
2023-04-16T06:03:11.889Z,100513.06
2023-04-16T06:04:15.967Z,100519.97
2023-04-16T06:05:20.316Z,100513.06
2023-04-16T06:06:24.106Z,100518.53
2023-04-16T06:07:26.632Z,100512.91
2023-04-16T06:08:30.474Z,100506.66
2023-04-16T06:09:32.734Z,100515.75
2023-04-16T06:10:36.440Z,100510.63
2023-04-16T06:11:39.825Z,100509.94
2023-04-16T06:12:43.546Z,100521.81
2023-04-16T06:13:46.223Z,100516.06
2023-04-16T06:14:49.923Z,100505.78
2023-04-16T06:15:52.303Z,100523.97
2023-04-16T06:16:56.731Z,100523.88
2023-04-16T06:18:00.892Z,100522.88
2023-04-16T06:19:04.732Z,100518.63
2023-04-16T06:20:07.504Z,100522.00
2023-04-16T06:21:12.657Z,100504.03
2023-04-16T06:22:15.638Z,100504.09
2023-04-16T06:23:19.388Z,100510.34
2023-04-16T06:24:22.124Z,100507.13
2023-04-16T06:25:25.777Z,100516.22
2023-04-16T06:26:28.053Z,100514.75
2023-04-16T06:27:32.709Z,100498.81
2023-04-16T06:28:35.349Z,100505.44
2023-04-16T06:29:41.548Z,100518.97
2023-04-16T06:30:44.887Z,100505.81
2023-04-16T06:31:49.708Z,100494.75
2023-04-16T06:32:54.100Z,100506.81
2023-04-16T06:33:58.190Z,100497.34
2023-04-16T06:35:00.981Z,100499.50
2023-04-16T06:36:04.932Z,100503.56
2023-04-16T06:37:10.639Z,100495.94
2023-04-16T06:38:14.721Z,100497.91
2023-04-16T06:39:17.450Z,100497.50
2023-04-16T06:40:21.137Z,100493.66
2023-04-16T06:41:25.973Z,100495.72
2023-04-16T06:42:29.762Z,100494.56
2023-04-16T06:43:33.888Z,100489.22
2023-04-16T06:44:37.815Z,100474.38
2023-04-16T06:45:40.364Z,100490.56
2023-04-16T06:46:44.267Z,100492.84
2023-04-16T06:47:48.285Z,100488.94
2023-04-16T06:48:52.343Z,100496.06
2023-04-16T06:49:55.015Z,100500.00
2023-04-16T06:50:58.833Z,100494.88
2023-04-16T06:52:03.329Z,100498.53
2023-04-16T06:53:10.050Z,100494.09
2023-04-16T06:54:13.062Z,100497.53
2023-04-16T06:55:16.867Z,100502.16
2023-04-16T06:56:20.582Z,100497.00
2023-04-16T06:57:24.251Z,100497.50
2023-04-16T06:58:27.607Z,100483.13
2023-04-16T06:59:31.443Z,100479.44
2023-04-16T07:00:34.078Z,100483.25
2023-04-16T07:01:37.876Z,100487.19
2023-04-16T07:02:40.953Z,100487.56
2023-04-16T07:03:44.929Z,100486.94
2023-04-16T07:04:48.050Z,100479.59
2023-04-16T07:05:51.671Z,100479.88
2023-04-16T07:06:54.024Z,100480.13
2023-04-16T07:07:57.825Z,100484.84
2023-04-16T07:09:02.834Z,100477.53
2023-04-16T07:10:07.668Z,100487.69
2023-04-16T07:11:11.304Z,100470.25
2023-04-16T07:12:13.720Z,100483.00
2023-04-16T07:13:18.799Z,100487.50
2023-04-16T07:14:21.608Z,100490.00
2023-04-16T07:15:25.501Z,100479.78
2023-04-16T07:16:28.315Z,100484.94
2023-04-16T07:17:31.937Z,100484.22
2023-04-16T07:18:34.882Z,100497.09
2023-04-16T07:19:38.449Z,100480.03
2023-04-16T07:20:42.278Z,100492.75
2023-04-16T07:21:44.950Z,100483.25
2023-04-16T07:22:48.798Z,100482.63
2023-04-16T07:23:51.047Z,100477.81
2023-04-16T07:24:56.705Z,100470.53
2023-04-16T07:26:00.611Z,100470.63
2023-04-16T07:27:03.258Z,100481.38
2023-04-16T07:28:07.159Z,100481.63
2023-04-16T07:29:09.872Z,100480.22
2023-04-16T07:30:14.051Z,100477.66
2023-04-16T07:31:16.700Z,100492.59
2023-04-16T07:32:21.752Z,100489.28
2023-04-16T07:33:26.331Z,100466.41
2023-04-16T07:34:29.007Z,100466.59
2023-04-16T07:35:33.103Z,100482.50
2023-04-16T07:36:35.913Z,100458.97
2023-04-16T07:37:39.509Z,100461.63
2023-04-16T07:38:42.072Z,100450.69
2023-04-16T07:39:45.845Z,100464.47
2023-04-16T07:40:49.953Z,100439.78
2023-04-16T07:41:53.816Z,100443.63
2023-04-16T07:42:56.625Z,100472.31
2023-04-16T07:44:00.331Z,100465.72
2023-04-16T07:45:04.182Z,100474.34
2023-04-16T07:46:08.036Z,100475.97
2023-04-16T07:47:10.992Z,100478.09
2023-04-16T07:48:14.633Z,100472.16
2023-04-16T07:49:16.895Z,100478.03
2023-04-16T07:50:20.882Z,100476.41
2023-04-16T07:51:23.945Z,100473.47
2023-04-16T07:52:28.166Z,100472.06
2023-04-16T07:53:30.952Z,100444.75
2023-04-16T07:54:34.692Z,100460.63
2023-04-16T07:55:37.285Z,100450.75
2023-04-16T07:56:42.326Z,100454.13
2023-04-16T07:57:45.291Z,100467.97
2023-04-16T07:58:48.900Z,100452.91
2023-04-16T07:59:51.599Z,100456.38
2023-04-16T08:00:55.423Z,100462.53
2023-04-16T08:01:58.311Z,100413.41
2023-04-16T08:03:02.651Z,100462.59
2023-04-16T08:04:05.814Z,100466.09
2023-04-16T08:05:10.057Z,100483.97
2023-04-16T08:06:13.892Z,100461.66
2023-04-16T08:07:17.454Z,100448.31
2023-04-16T08:08:20.286Z,100458.00
2023-04-16T08:09:25.179Z,100459.84
2023-04-16T08:10:29.057Z,100451.16
2023-04-16T08:11:31.557Z,100467.53
2023-04-16T08:12:36.947Z,100452.91
2023-04-16T08:13:40.020Z,100457.94
2023-04-16T08:14:43.741Z,100483.25
2023-04-16T08:15:47.360Z,100451.41
2023-04-16T08:16:50.219Z,100442.38
2023-04-16T08:17:54.015Z,100453.59
2023-04-16T08:18:59.085Z,100443.44
2023-04-16T08:20:02.761Z,100428.34
2023-04-16T08:21:08.679Z,100452.06
2023-04-16T08:22:10.985Z,100439.22
2023-04-16T08:23:14.671Z,100460.97
2023-04-16T08:24:17.167Z,100457.38
2023-04-16T08:25:20.840Z,100378.59
2023-04-16T08:26:23.471Z,100441.56
2023-04-16T08:27:27.302Z,100421.00
2023-04-16T08:28:32.195Z,100467.53
2023-04-16T08:29:34.901Z,100450.50
2023-04-16T08:30:38.542Z,100448.25
2023-04-16T08:31:42.212Z,100456.09
2023-04-16T08:32:47.960Z,100438.81
2023-04-16T08:33:51.936Z,100439.63
2023-04-16T08:34:56.139Z,100453.59
2023-04-16T08:35:58.722Z,100485.28
2023-04-16T08:37:02.466Z,100456.09
2023-04-16T08:38:04.947Z,100459.53
2023-04-16T08:39:08.352Z,100458.19
2023-04-16T08:40:12.004Z,100446.06
2023-04-16T08:41:16.406Z,100449.22
2023-04-16T08:42:29.541Z,100464.41
2023-04-16T08:43:35.944Z,100446.50
2023-04-16T08:44:44.191Z,100436.63
2023-04-16T08:45:49.540Z,100404.34
2023-04-16T08:46:57.484Z,100417.59
2023-04-16T08:48:02.334Z,100414.13
2023-04-16T08:49:07.666Z,100447.38
2023-04-16T08:50:13.309Z,100412.50
2023-04-16T08:51:18.911Z,100452.41
2023-04-16T08:52:25.507Z,100431.38
2023-04-16T08:53:36.397Z,100453.72
2023-04-16T08:54:44.993Z,100468.66
2023-04-16T08:55:50.563Z,100456.88
2023-04-16T08:56:53.775Z,100469.56
2023-04-16T08:58:01.589Z,100431.19
2023-04-16T08:59:06.078Z,100433.72
2023-04-16T09:00:11.160Z,100450.22
2023-04-16T09:01:15.089Z,100483.81
2023-04-16T09:02:18.675Z,100470.84
2023-04-16T09:03:25.478Z,100441.47
2023-04-16T09:04:29.281Z,100457.13
2023-04-16T09:05:34.860Z,100454.38
2023-04-16T09:06:38.585Z,100454.66
2023-04-16T09:07:43.638Z,100446.44
2023-04-16T09:08:47.625Z,100444.34
2023-04-16T09:09:53.739Z,100430.47
2023-04-16T09:10:57.997Z,100433.53
2023-04-16T09:12:01.237Z,100430.63
2023-04-16T09:13:05.059Z,100457.66
2023-04-16T09:14:10.945Z,100452.66
2023-04-16T09:15:15.763Z,100450.47
2023-04-16T09:16:19.101Z,100416.72
2023-04-16T09:17:23.050Z,100511.63
2023-04-16T09:18:28.538Z,100461.53
2023-04-16T09:19:31.091Z,100427.09
2023-04-16T09:20:34.885Z,100441.88
2023-04-16T09:21:37.512Z,100454.94
2023-04-16T09:22:41.552Z,100472.97
2023-04-16T09:23:44.604Z,100423.31
2023-04-16T09:24:48.371Z,100459.31
2023-04-16T09:25:51.013Z,100443.03
2023-04-16T09:26:56.656Z,100460.59
2023-04-16T09:27:59.294Z,100446.88
2023-04-16T09:29:03.318Z,100452.69
2023-04-16T09:30:24.618Z,100428.63
2023-04-16T09:31:27.606Z,100439.13
2023-04-16T09:32:31.500Z,100446.28
2023-04-16T09:33:34.987Z,100453.38
2023-04-16T09:34:56.706Z,100470.72
2023-04-16T09:35:59.427Z,100429.06
2023-04-16T09:37:18.587Z,100440.44
2023-04-16T09:38:21.554Z,100442.28
2023-04-16T09:39:25.096Z,100434.69
2023-04-16T09:40:28.150Z,100445.34
2023-04-16T09:41:33.403Z,100462.75
2023-04-16T09:42:37.365Z,100450.66
2023-04-16T09:43:41.246Z,100439.63
2023-04-16T09:44:44.034Z,100421.69
2023-04-16T09:45:57.581Z,100412.38
2023-04-16T09:47:07.953Z,100374.50
2023-04-16T09:48:11.571Z,100411.06
2023-04-16T09:49:16.213Z,100439.56
2023-04-16T09:50:20.471Z,100423.25
2023-04-16T09:51:25.089Z,100407.88
2023-04-16T09:52:27.774Z,100411.25
2023-04-16T09:53:33.192Z,100436.41
2023-04-16T09:54:36.875Z,100426.06
2023-04-16T09:55:40.620Z,100445.47
2023-04-16T09:56:45.274Z,100450.78
2023-04-16T09:57:48.879Z,100416.22
2023-04-16T09:58:51.267Z,100402.56
2023-04-16T09:59:57.559Z,100406.97
2023-04-16T10:01:03.785Z,100424.34
2023-04-16T10:02:15.353Z,100423.75
2023-04-16T10:03:20.082Z,100437.16
2023-04-16T10:04:22.957Z,100434.72
2023-04-16T10:05:28.201Z,100412.53
2023-04-16T10:06:31.380Z,100407.22
2023-04-16T10:07:36.555Z,100419.59
2023-04-16T10:08:45.251Z,100413.72
2023-04-16T10:09:48.808Z,100444.22
2023-04-16T10:10:52.892Z,100448.31
2023-04-16T10:11:55.564Z,100440.09
2023-04-16T10:12:59.679Z,100438.22
2023-04-16T10:14:02.356Z,100449.06
2023-04-16T10:15:06.986Z,100416.81
2023-04-16T10:16:11.591Z,100425.25
2023-04-16T10:17:15.687Z,100433.06
2023-04-16T10:18:23.508Z,100449.03
2023-04-16T10:19:28.426Z,100472.22
2023-04-16T10:20:31.551Z,100432.34
2023-04-16T10:21:35.498Z,100451.94
2023-04-16T10:22:38.635Z,100420.94
2023-04-16T10:23:43.128Z,100465.97
2023-04-16T10:24:47.464Z,100394.28
2023-04-16T10:25:51.966Z,100461.88
2023-04-16T10:26:55.907Z,100451.13
2023-04-16T10:28:00.326Z,100455.25
2023-04-16T10:29:04.730Z,100468.25
2023-04-16T10:30:10.411Z,100418.00
2023-04-16T10:31:15.119Z,100458.44
2023-04-16T10:32:21.048Z,100474.91
2023-04-16T10:33:28.299Z,100469.13
2023-04-16T10:34:33.837Z,100451.03
2023-04-16T10:35:40.339Z,100491.59
2023-04-16T10:36:44.524Z,100442.16
2023-04-16T10:37:47.755Z,100458.06
2023-04-16T10:38:52.748Z,100453.31
2023-04-16T10:39:55.816Z,100435.88
2023-04-16T10:41:03.390Z,100440.28
2023-04-16T10:42:11.143Z,100411.53
2023-04-16T10:43:18.321Z,100395.94
2023-04-16T10:44:21.998Z,100426.28
2023-04-16T10:45:31.239Z,100464.69
2023-04-16T10:46:39.217Z,100439.06
2023-04-16T10:47:43.473Z,100404.84
2023-04-16T10:48:50.152Z,100392.41
2023-04-16T10:49:53.377Z,100435.16
2023-04-16T10:50:59.107Z,100431.31
2023-04-16T10:52:08.213Z,100405.25
2023-04-16T10:53:24.341Z,100447.28
2023-04-16T10:54:29.219Z,100449.13
2023-04-16T10:55:31.937Z,100375.16
2023-04-16T10:56:37.123Z,100442.72
2023-04-16T10:57:40.808Z,100413.09
2023-04-16T10:58:43.331Z,100434.91
2023-04-16T10:59:48.186Z,100470.75
2023-04-16T11:00:51.371Z,100442.94
2023-04-16T11:01:58.599Z,100438.66
2023-04-16T11:03:02.378Z,100409.59
2023-04-16T11:04:36.789Z,100425.94
2023-04-16T11:05:47.263Z,100448.38
2023-04-16T11:07:03.494Z,100404.75
2023-04-16T11:08:14.405Z,100408.66
2023-04-16T11:09:49.886Z,100438.22
2023-04-16T11:10:54.008Z,100435.06
2023-04-16T11:11:56.848Z,100398.16
2023-04-16T11:13:01.143Z,100416.19
2023-04-16T11:14:05.540Z,100423.44
2023-04-16T11:15:11.628Z,100433.28
2023-04-16T11:16:14.859Z,100434.16
2023-04-16T11:17:20.618Z,100433.59
2023-04-16T11:18:23.491Z,100413.50
2023-04-16T11:19:27.387Z,100402.06
2023-04-16T11:20:31.106Z,100432.63
2023-04-16T11:21:35.614Z,100410.38
2023-04-16T11:22:38.960Z,100386.50
2023-04-16T11:23:50.415Z,100395.88
2023-04-16T11:24:55.986Z,100410.28
2023-04-16T11:26:00.417Z,100429.59
2023-04-16T11:27:03.367Z,100444.44
2023-04-16T11:28:07.171Z,100415.59
2023-04-16T11:29:15.577Z,100433.34
2023-04-16T11:30:20.284Z,100414.31
2023-04-16T11:31:23.690Z,100411.09
2023-04-16T11:32:29.132Z,100386.88
2023-04-16T11:33:32.404Z,100423.31
2023-04-16T11:34:36.439Z,100431.16
2023-04-16T11:35:39.791Z,100415.88
2023-04-16T11:36:46.421Z,100427.63
2023-04-16T11:37:49.111Z,100432.44
2023-04-16T11:38:53.023Z,100423.94
2023-04-16T11:39:55.796Z,100436.81
2023-04-16T11:40:59.607Z,100413.00
2023-04-16T11:42:03.599Z,100403.94
2023-04-16T11:43:17.494Z,100416.91
2023-04-16T11:44:22.982Z,100412.97
2023-04-16T11:45:26.077Z,100370.78
2023-04-16T11:46:40.905Z,100413.34
2023-04-16T11:47:47.682Z,100410.09
2023-04-16T11:48:51.318Z,100410.06
2023-04-16T11:49:55.237Z,100392.03
2023-04-16T11:50:58.647Z,100409.03
2023-04-16T11:52:02.495Z,100408.63
2023-04-16T11:53:05.618Z,100419.44
2023-04-16T11:54:11.859Z,100430.63
2023-04-16T11:55:15.702Z,100387.69
2023-04-16T11:56:27.812Z,100435.63
2023-04-16T11:57:33.258Z,100364.00
2023-04-16T11:58:36.037Z,100427.78
2023-04-16T12:00:02.279Z,100408.09
2023-04-16T12:01:07.223Z,100401.22
2023-04-16T12:02:10.346Z,100397.47
2023-04-16T12:03:15.887Z,100425.59
2023-04-16T12:04:21.027Z,100410.81
2023-04-16T12:05:32.237Z,100420.88
2023-04-16T12:06:35.283Z,100419.31
2023-04-16T12:07:46.766Z,100407.06
2023-04-16T12:08:50.743Z,100406.09
2023-04-16T12:10:06.501Z,100389.63
2023-04-16T12:11:10.290Z,100415.34
2023-04-16T12:12:34.942Z,100418.50
2023-04-16T12:13:40.406Z,100408.09
2023-04-16T12:14:52.074Z,100398.50